createdAt,value
2023-05-19T00:00:50.490Z,51.216099
2023-05-19T00:01:48.200Z,51.216110
2023-05-19T00:02:48.351Z,51.216156
2023-05-19T00:03:48.158Z,51.216202
2023-05-19T00:04:48.172Z,51.216129
2023-05-19T00:05:48.596Z,51.216061
2023-05-19T00:06:48.176Z,51.216103
2023-05-19T00:07:48.144Z,51.216015
2023-05-19T00:08:48.124Z,51.216019
2023-05-19T00:09:48.115Z,51.216095
2023-05-19T00:10:48.128Z,51.216114
2023-05-19T00:11:48.113Z,51.216099
2023-05-19T00:12:48.194Z,51.216015
2023-05-19T00:13:48.110Z,51.216087
2023-05-19T00:14:48.090Z,51.216015
2023-05-19T00:15:48.138Z,51.216141
2023-05-19T00:16:48.063Z,51.216156
2023-05-19T00:17:48.092Z,51.216057
2023-05-19T00:18:48.065Z,51.216026
2023-05-19T00:19:48.160Z,51.216019
2023-05-19T00:20:48.043Z,51.216091
2023-05-19T00:21:48.067Z,51.216034
2023-05-19T00:22:48.038Z,51.216068
2023-05-19T00:23:48.017Z,51.216034
2023-05-19T00:24:48.012Z,51.216064
2023-05-19T00:25:48.015Z,51.216087
2023-05-19T00:26:48.004Z,51.216042
2023-05-19T00:27:47.999Z,51.216099
2023-05-19T00:28:47.975Z,51.216038
2023-05-19T00:29:47.997Z,51.215961
2023-05-19T00:30:47.963Z,51.216000
2023-05-19T00:31:48.017Z,51.216015
2023-05-19T00:32:48.003Z,51.216019
2023-05-19T00:33:47.948Z,51.216015
2023-05-19T00:34:47.956Z,51.216084
2023-05-19T00:35:48.108Z,51.216137
2023-05-19T00:36:47.934Z,51.216110
2023-05-19T00:37:47.922Z,51.216156
2023-05-19T00:38:47.912Z,51.216064
2023-05-19T00:39:47.912Z,51.216125
2023-05-19T00:40:47.935Z,51.216084
2023-05-19T00:41:47.895Z,51.216095
2023-05-19T00:42:47.901Z,51.216011
2023-05-19T00:43:47.874Z,51.216171
2023-05-19T00:44:47.876Z,51.216198
2023-05-19T00:45:47.862Z,51.216156
2023-05-19T00:46:47.946Z,51.216206
2023-05-19T00:47:47.872Z,51.216236
2023-05-19T00:48:47.845Z,51.216206
2023-05-19T00:49:47.840Z,51.216171
2023-05-19T00:50:47.846Z,51.216103
2023-05-19T00:51:47.848Z,51.216125
2023-05-19T00:52:47.814Z,51.216125
2023-05-19T00:53:47.803Z,51.216007
2023-05-19T00:54:47.810Z,51.215946
2023-05-19T00:55:47.800Z,51.215992
2023-05-19T00:56:47.801Z,51.216007
2023-05-19T00:57:47.791Z,51.216064
2023-05-19T00:58:47.783Z,51.216003
2023-05-19T00:59:47.764Z,51.215961
2023-05-19T01:00:47.758Z,51.216152
2023-05-19T01:01:47.747Z,51.216091
2023-05-19T01:02:47.845Z,51.216080
2023-05-19T01:03:47.808Z,51.216045
2023-05-19T01:04:47.734Z,51.216049
2023-05-19T01:05:47.713Z,51.216129
2023-05-19T01:06:47.720Z,51.216000
2023-05-19T01:07:47.721Z,51.216114
2023-05-19T01:08:47.717Z,51.216125
2023-05-19T01:09:47.692Z,51.215973
2023-05-19T01:10:47.686Z,51.216038
2023-05-19T01:11:47.681Z,51.215992
2023-05-19T01:12:47.664Z,51.216022
2023-05-19T01:13:47.690Z,51.216087
2023-05-19T01:14:47.662Z,51.216274
2023-05-19T01:15:47.649Z,51.216297
2023-05-19T01:16:47.717Z,51.216206
2023-05-19T01:17:47.700Z,51.216198
2023-05-19T01:18:47.724Z,51.216091
2023-05-19T01:19:47.622Z,51.216045
2023-05-19T01:20:47.616Z,51.216034
2023-05-19T01:21:47.609Z,51.216160
2023-05-19T01:22:47.622Z,51.216316
2023-05-19T01:23:48.593Z,51.216263
2023-05-19T01:24:47.583Z,51.216221
2023-05-19T01:25:47.576Z,51.216148
2023-05-19T01:26:47.575Z,51.216064
2023-05-19T01:27:47.617Z,51.216103
2023-05-19T01:28:48.556Z,51.216122
2023-05-19T01:29:47.557Z,51.216156
2023-05-19T01:30:47.557Z,51.216232
2023-05-19T01:31:47.588Z,51.216118
2023-05-19T01:32:47.559Z,51.216145
2023-05-19T01:33:47.555Z,51.216164
2023-05-19T01:34:47.533Z,51.216194
2023-05-19T01:35:47.520Z,51.216179
2023-05-19T01:36:47.513Z,51.216080
2023-05-19T01:37:47.497Z,51.216160
2023-05-19T01:38:47.517Z,51.216225
2023-05-19T01:39:47.513Z,51.216099
2023-05-19T01:40:47.484Z,51.216236
2023-05-19T01:41:47.494Z,51.216049
2023-05-19T01:42:47.467Z,51.216087
2023-05-19T01:43:48.537Z,51.216278
2023-05-19T01:44:47.465Z,51.216461
2023-05-19T01:45:47.473Z,51.216274
2023-05-19T01:46:47.519Z,51.216133
2023-05-19T01:47:47.496Z,51.215992
2023-05-19T01:48:47.436Z,51.216053
2023-05-19T01:49:47.451Z,51.216015
2023-05-19T01:50:47.417Z,51.216053
2023-05-19T01:51:47.419Z,51.216061
2023-05-19T01:52:47.418Z,51.216030
2023-05-19T01:53:47.398Z,51.215969
2023-05-19T01:54:47.412Z,51.216026
2023-05-19T01:55:47.391Z,51.216213
2023-05-19T01:56:47.398Z,51.216114
2023-05-19T01:57:47.378Z,51.216049
2023-05-19T01:58:47.387Z,51.216095
2023-05-19T01:59:47.374Z,51.216084
2023-05-19T02:00:47.377Z,51.216061
2023-05-19T02:01:47.418Z,51.215958
2023-05-19T02:02:47.384Z,51.216030
2023-05-19T02:03:47.329Z,51.215988
2023-05-19T02:04:47.348Z,51.216080
2023-05-19T02:05:47.328Z,51.216133
2023-05-19T02:06:47.318Z,51.216045
2023-05-19T02:07:47.303Z,51.215744
2023-05-19T02:08:47.304Z,51.215874
2023-05-19T02:09:47.280Z,51.215946
2023-05-19T02:10:47.293Z,51.216000
2023-05-19T02:11:47.278Z,51.215946
2023-05-19T02:12:47.258Z,51.216057
2023-05-19T02:13:48.272Z,51.216061
2023-05-19T02:14:47.256Z,51.215996
2023-05-19T02:15:47.298Z,51.216022
2023-05-19T02:16:47.250Z,51.216057
2023-05-19T02:17:47.348Z,51.215935
2023-05-19T02:18:47.285Z,51.215996
2023-05-19T02:19:47.238Z,51.215961
2023-05-19T02:20:47.230Z,51.215942
2023-05-19T02:21:47.209Z,51.215847
2023-05-19T02:22:47.197Z,51.215992
2023-05-19T02:23:47.189Z,51.216042
2023-05-19T02:24:47.179Z,51.216045
2023-05-19T02:25:47.170Z,51.215866
2023-05-19T02:26:47.198Z,51.215981
2023-05-19T02:27:47.167Z,51.216000
2023-05-19T02:28:47.160Z,51.215855
2023-05-19T02:29:47.150Z,51.215973
2023-05-19T02:30:47.149Z,51.215908
2023-05-19T02:31:47.175Z,51.215954
2023-05-19T02:32:47.287Z,51.215996
2023-05-19T02:33:47.121Z,51.216007
2023-05-19T02:34:47.119Z,51.216026
2023-05-19T02:35:47.106Z,51.216064
2023-05-19T02:36:47.115Z,51.215984
2023-05-19T02:37:47.110Z,51.215721
2023-05-19T02:38:47.084Z,51.215965
2023-05-19T02:39:47.101Z,51.216061
2023-05-19T02:40:47.086Z,51.216103
2023-05-19T02:41:47.071Z,51.216061
2023-05-19T02:42:47.085Z,51.215984
2023-05-19T02:43:47.050Z,51.216133
2023-05-19T02:44:47.049Z,51.216129
2023-05-19T02:45:47.048Z,51.216000
2023-05-19T02:46:47.170Z,51.215992
2023-05-19T02:47:47.069Z,51.215969
2023-05-19T02:48:47.026Z,51.215950
2023-05-19T02:49:47.009Z,51.215908
2023-05-19T02:50:48.001Z,51.215992
2023-05-19T02:51:47.007Z,51.216057
2023-05-19T02:52:46.987Z,51.216042
2023-05-19T02:53:46.978Z,51.215912
2023-05-19T02:54:46.971Z,51.215904
2023-05-19T02:55:46.983Z,51.215927
2023-05-19T02:56:46.965Z,51.215919
2023-05-19T02:57:46.953Z,51.216034
2023-05-19T02:58:46.950Z,51.216011
2023-05-19T02:59:46.949Z,51.216080
2023-05-19T03:00:46.957Z,51.216000
2023-05-19T03:01:46.944Z,51.216053
2023-05-19T03:02:47.006Z,51.216099
2023-05-19T03:03:47.049Z,51.216118
2023-05-19T03:04:46.905Z,51.216110
2023-05-19T03:05:46.906Z,51.216087
2023-05-19T03:06:46.915Z,51.216084
2023-05-19T03:07:46.885Z,51.216076
2023-05-19T03:08:46.885Z,51.216125
2023-05-19T03:09:46.869Z,51.216152
2023-05-19T03:10:46.867Z,51.216114
2023-05-19T03:11:46.868Z,51.216103
2023-05-19T03:12:46.860Z,51.216129
2023-05-19T03:13:46.855Z,51.216141
2023-05-19T03:14:46.850Z,51.216125
2023-05-19T03:15:46.836Z,51.216057
2023-05-19T03:16:46.985Z,51.216125
2023-05-19T03:17:46.932Z,51.216167
2023-05-19T03:18:46.852Z,51.216175
2023-05-19T03:19:46.810Z,51.216099
2023-05-19T03:20:46.793Z,51.216076
2023-05-19T03:21:46.820Z,51.216179
2023-05-19T03:22:46.794Z,51.216125
2023-05-19T03:23:46.779Z,51.216171
2023-05-19T03:24:46.783Z,51.216232
2023-05-19T03:25:46.778Z,51.216145
2023-05-19T03:26:46.777Z,51.216072
2023-05-19T03:27:46.759Z,51.216118
2023-05-19T03:28:46.751Z,51.216122
2023-05-19T03:29:46.751Z,51.216129
2023-05-19T03:30:46.732Z,51.216141
2023-05-19T03:31:46.726Z,51.216125
2023-05-19T03:32:46.824Z,51.216080
2023-05-19T03:33:46.708Z,51.216106
2023-05-19T03:34:46.704Z,51.216064
2023-05-19T03:35:46.742Z,51.216110
2023-05-19T03:36:46.701Z,51.216061
2023-05-19T03:37:46.708Z,51.216095
2023-05-19T03:38:46.690Z,51.216145
2023-05-19T03:39:46.698Z,51.216122
2023-05-19T03:40:46.695Z,51.216160
2023-05-19T03:41:46.688Z,51.216072
2023-05-19T03:42:46.657Z,51.216068
2023-05-19T03:43:46.653Z,51.216141
2023-05-19T03:44:46.641Z,51.216194
2023-05-19T03:45:46.694Z,51.216194
2023-05-19T03:46:46.640Z,51.216190
2023-05-19T03:47:46.796Z,51.216171
2023-05-19T03:48:46.617Z,51.216103
2023-05-19T03:49:46.611Z,51.216164
2023-05-19T03:50:46.605Z,51.216084
2023-05-19T03:51:46.772Z,51.216122
2023-05-19T03:52:46.654Z,51.216118
2023-05-19T03:53:46.589Z,51.216087
2023-05-19T03:54:46.613Z,51.216068
2023-05-19T03:55:46.571Z,51.216129
2023-05-19T03:56:46.573Z,51.216106
2023-05-19T03:57:46.565Z,51.216087
2023-05-19T03:58:46.548Z,51.216125
2023-05-19T03:59:46.701Z,51.216167
2023-05-19T04:00:46.540Z,51.216118
2023-05-19T04:01:46.534Z,51.216156
2023-05-19T04:02:46.625Z,51.216141
2023-05-19T04:03:46.651Z,51.216183
2023-05-19T04:04:46.609Z,51.216038
2023-05-19T04:05:46.569Z,51.216015
2023-05-19T04:06:46.505Z,51.215984
2023-05-19T04:07:46.507Z,51.216034
2023-05-19T04:08:46.495Z,51.215984
2023-05-19T04:09:46.506Z,51.215965
2023-05-19T04:10:46.498Z,51.216057
2023-05-19T04:11:46.475Z,51.216106
2023-05-19T04:12:46.458Z,51.216057
2023-05-19T04:13:46.459Z,51.216076
2023-05-19T04:14:46.482Z,51.216160
2023-05-19T04:15:46.481Z,51.216133
2023-05-19T04:16:46.440Z,51.216122
2023-05-19T04:17:46.496Z,51.216072
2023-05-19T04:18:46.657Z,51.216110
2023-05-19T04:19:46.436Z,51.216232
2023-05-19T04:20:46.429Z,51.215988
2023-05-19T04:21:46.417Z,51.216019
2023-05-19T04:22:46.405Z,51.216099
2023-05-19T04:23:46.439Z,51.216145
2023-05-19T04:24:46.387Z,51.216007
2023-05-19T04:25:46.391Z,51.215973
2023-05-19T04:26:46.382Z,51.215984
2023-05-19T04:27:46.371Z,51.216034
2023-05-19T04:28:46.372Z,51.216198
2023-05-19T04:29:46.360Z,51.216133
2023-05-19T04:30:46.463Z,51.216206
2023-05-19T04:31:46.388Z,51.216160
2023-05-19T04:32:46.361Z,51.216335
2023-05-19T04:33:46.336Z,51.216312
2023-05-19T04:34:46.360Z,51.216236
2023-05-19T04:35:46.346Z,51.216244
2023-05-19T04:36:46.321Z,51.216141
2023-05-19T04:37:46.316Z,51.216019
2023-05-19T04:38:46.303Z,51.215973
2023-05-19T04:39:46.293Z,51.215919
2023-05-19T04:40:46.312Z,51.215931
2023-05-19T04:41:46.276Z,51.215893
2023-05-19T04:42:46.295Z,51.215839
2023-05-19T04:43:46.276Z,51.215805
2023-05-19T04:44:46.277Z,51.215954
2023-05-19T04:45:46.252Z,51.216026
2023-05-19T04:46:46.286Z,51.215981
2023-05-19T04:47:46.279Z,51.216022
2023-05-19T04:48:46.233Z,51.215893
2023-05-19T04:49:46.223Z,51.215916
2023-05-19T04:50:46.216Z,51.215923
2023-05-19T04:51:46.256Z,51.216118
2023-05-19T04:52:46.221Z,51.216118
2023-05-19T04:53:46.214Z,51.216038
2023-05-19T04:54:46.200Z,51.216133
2023-05-19T04:55:46.199Z,51.216114
2023-05-19T04:56:46.194Z,51.216106
2023-05-19T04:57:46.199Z,51.216076
2023-05-19T04:58:46.189Z,51.215981
2023-05-19T04:59:46.168Z,51.215988
2023-05-19T05:00:46.156Z,51.215958
2023-05-19T05:01:46.214Z,51.215935
2023-05-19T05:02:46.259Z,51.216030
2023-05-19T05:03:46.245Z,51.216133
2023-05-19T05:04:46.125Z,51.216087
2023-05-19T05:05:46.132Z,51.216152
2023-05-19T05:06:46.109Z,51.216099
2023-05-19T05:07:46.117Z,51.216125
2023-05-19T05:08:46.127Z,51.216145
2023-05-19T05:09:46.100Z,51.216103
2023-05-19T05:10:46.090Z,51.216190
2023-05-19T05:11:46.092Z,51.216217
2023-05-19T05:12:46.084Z,51.216259
2023-05-19T05:13:46.076Z,51.216244
2023-05-19T05:14:46.117Z,51.216248
2023-05-19T05:15:46.055Z,51.216156
2023-05-19T05:16:46.120Z,51.216133
2023-05-19T05:17:46.071Z,51.216156
2023-05-19T05:18:46.061Z,51.216133
2023-05-19T05:19:46.051Z,51.216057
2023-05-19T05:20:46.019Z,51.216125
2023-05-19T05:21:46.019Z,51.216110
2023-05-19T05:22:46.008Z,51.216133
2023-05-19T05:23:46.017Z,51.216156
2023-05-19T05:24:46.006Z,51.216156
2023-05-19T05:25:45.989Z,51.216179
2023-05-19T05:26:45.989Z,51.216167
2023-05-19T05:27:45.975Z,51.216160
2023-05-19T05:28:45.972Z,51.216118
2023-05-19T05:29:45.957Z,51.216175
2023-05-19T05:30:46.005Z,51.216171
2023-05-19T05:31:45.953Z,51.216152
2023-05-19T05:32:45.996Z,51.216183
2023-05-19T05:33:45.998Z,51.216152
2023-05-19T05:34:45.952Z,51.216175
2023-05-19T05:35:45.932Z,51.216156
2023-05-19T05:36:45.909Z,51.216164
2023-05-19T05:37:45.924Z,51.216133
2023-05-19T05:38:45.906Z,51.216167
2023-05-19T05:39:45.900Z,51.216225
2023-05-19T05:40:45.889Z,51.216209
2023-05-19T05:41:45.878Z,51.216114
2023-05-19T05:42:45.882Z,51.216125
2023-05-19T05:43:45.881Z,51.216141
2023-05-19T05:44:45.854Z,51.216137
2023-05-19T05:45:45.863Z,51.216125
2023-05-19T05:46:45.858Z,51.216114
2023-05-19T05:47:45.916Z,51.216156
2023-05-19T05:48:45.836Z,51.216129
2023-05-19T05:49:45.819Z,51.216095
2023-05-19T05:50:45.849Z,51.216152
2023-05-19T05:51:54.712Z,51.216167
2023-05-19T05:52:47.812Z,51.216152
2023-05-19T05:53:45.804Z,51.216145
2023-05-19T05:54:45.791Z,51.216202
2023-05-19T05:55:45.804Z,51.216152
2023-05-19T05:56:45.785Z,51.216106
2023-05-19T05:57:45.774Z,51.216171
2023-05-19T05:58:45.793Z,51.216164
2023-05-19T05:59:45.769Z,51.216183
2023-05-19T06:00:45.778Z,51.216190
2023-05-19T06:01:45.756Z,51.216213
2023-05-19T06:02:45.848Z,51.216209
2023-05-19T06:03:46.002Z,51.216175
2023-05-19T06:04:45.723Z,51.216145
2023-05-19T06:05:45.814Z,51.216167
2023-05-19T06:06:45.723Z,51.216156
2023-05-19T06:07:45.712Z,51.216156
2023-05-19T06:08:45.730Z,51.216164
2023-05-19T06:09:45.684Z,51.216160
2023-05-19T06:10:47.376Z,51.216156
2023-05-19T06:11:46.702Z,51.216114
2023-05-19T06:12:45.683Z,51.216114
2023-05-19T06:13:46.475Z,51.216194
2023-05-19T06:14:45.709Z,51.216160
2023-05-19T06:15:45.914Z,51.216209
2023-05-19T06:16:45.675Z,51.216202
2023-05-19T06:17:45.689Z,51.216194
2023-05-19T06:18:45.886Z,51.216228
2023-05-19T06:19:45.623Z,51.216156
2023-05-19T06:20:45.625Z,51.216160
2023-05-19T06:21:45.627Z,51.216087
2023-05-19T06:22:45.605Z,51.216061
2023-05-19T06:23:45.628Z,51.216148
2023-05-19T06:24:45.617Z,51.216125
2023-05-19T06:25:46.488Z,51.216141
2023-05-19T06:26:45.616Z,51.216175
2023-05-19T06:27:45.584Z,51.216206
2023-05-19T06:28:46.475Z,51.216110
2023-05-19T06:29:45.581Z,51.216190
2023-05-19T06:30:45.550Z,51.216217
2023-05-19T06:31:45.570Z,51.216206
2023-05-19T06:32:45.613Z,51.216190
2023-05-19T06:33:45.552Z,51.216072
2023-05-19T06:34:45.537Z,51.216042
2023-05-19T06:35:45.557Z,51.216099
2023-05-19T06:36:45.521Z,51.216034
2023-05-19T06:37:45.516Z,51.216061
2023-05-19T06:38:45.521Z,51.216141
2023-05-19T06:39:45.490Z,51.216190
2023-05-19T06:40:45.514Z,51.216167
2023-05-19T06:41:45.473Z,51.216194
2023-05-19T06:42:45.491Z,51.216103
2023-05-19T06:43:45.494Z,51.216011
2023-05-19T06:44:45.477Z,51.216042
2023-05-19T06:45:45.449Z,51.216034
2023-05-19T06:46:45.524Z,51.216049
2023-05-19T06:47:45.502Z,51.216034
2023-05-19T06:48:45.445Z,51.216152
2023-05-19T06:49:45.431Z,51.216133
2023-05-19T06:50:46.437Z,51.216122
2023-05-19T06:51:45.427Z,51.216019
2023-05-19T06:52:45.415Z,51.216064
2023-05-19T06:53:45.417Z,51.216064
2023-05-19T06:54:45.413Z,51.216061
2023-05-19T06:55:57.899Z,51.216152
2023-05-19T06:56:47.378Z,51.216167
2023-05-19T06:57:45.375Z,51.216190
2023-05-19T06:58:45.396Z,51.216198
2023-05-19T06:59:45.361Z,51.216167
2023-05-19T07:00:45.349Z,51.216202
2023-05-19T07:01:45.391Z,51.216148
2023-05-19T07:02:45.393Z,51.216114
2023-05-19T07:03:45.398Z,51.216053
2023-05-19T07:04:45.321Z,51.216129
2023-05-19T07:05:45.328Z,51.216072
2023-05-19T07:06:45.332Z,51.216072
2023-05-19T07:07:45.301Z,51.216152
2023-05-19T07:08:45.311Z,51.216072
2023-05-19T07:09:45.289Z,51.216084
2023-05-19T07:10:45.300Z,51.216110
2023-05-19T07:11:45.269Z,51.216072
2023-05-19T07:12:46.280Z,51.216068
2023-05-19T07:13:45.280Z,51.216049
2023-05-19T07:14:45.268Z,51.216038
2023-05-19T07:15:45.282Z,51.216057
2023-05-19T07:16:45.302Z,51.216129
2023-05-19T07:17:45.296Z,51.216095
2023-05-19T07:18:45.258Z,51.216110
2023-05-19T07:19:45.252Z,51.216129
2023-05-19T07:20:45.232Z,51.216118
2023-05-19T07:21:45.213Z,51.216160
2023-05-19T07:22:45.220Z,51.216152
2023-05-19T07:23:45.202Z,51.216156
2023-05-19T07:24:45.218Z,51.216164
2023-05-19T07:25:45.201Z,51.216148
2023-05-19T07:26:45.173Z,51.216103
2023-05-19T07:27:46.169Z,51.216156
2023-05-19T07:28:45.186Z,51.216274
2023-05-19T07:29:45.161Z,51.216187
2023-05-19T07:30:45.181Z,51.216091
2023-05-19T07:31:45.149Z,51.216064
2023-05-19T07:32:45.217Z,51.216038
2023-05-19T07:33:45.140Z,51.216011
2023-05-19T07:34:45.122Z,51.216290
2023-05-19T07:35:45.137Z,51.216225
2023-05-19T07:36:45.112Z,51.216087
2023-05-19T07:37:45.107Z,51.216183
2023-05-19T07:38:45.137Z,51.216095
2023-05-19T07:39:45.104Z,51.216053
2023-05-19T07:40:45.084Z,51.216259
2023-05-19T07:41:45.094Z,51.216396
2023-05-19T07:42:45.083Z,51.216415
2023-05-19T07:43:45.071Z,51.216217
2023-05-19T07:44:45.058Z,51.216053
2023-05-19T07:45:45.063Z,51.216003
2023-05-19T07:46:45.050Z,51.216171
2023-05-19T07:47:45.046Z,51.216324
2023-05-19T07:48:45.037Z,51.216282
2023-05-19T07:49:45.031Z,51.216221
2023-05-19T07:50:45.010Z,51.216179
2023-05-19T07:51:45.018Z,51.216125
2023-05-19T07:52:44.999Z,51.216232
2023-05-19T07:53:45.004Z,51.216434
2023-05-19T07:54:45.005Z,51.216206
2023-05-19T07:55:44.995Z,51.216099
2023-05-19T07:56:44.969Z,51.216087
2023-05-19T07:57:44.987Z,51.216084
2023-05-19T07:58:45.957Z,51.216076
2023-05-19T07:59:44.974Z,51.216034
2023-05-19T08:00:44.949Z,51.216099
2023-05-19T08:01:44.942Z,51.216038
2023-05-19T08:02:45.044Z,51.216061
2023-05-19T08:03:45.002Z,51.216019
2023-05-19T08:04:44.982Z,51.216026
2023-05-19T08:05:44.932Z,51.216038
2023-05-19T08:06:44.909Z,51.216087
2023-05-19T08:07:44.907Z,51.216110
2023-05-19T08:08:44.893Z,51.216141
2023-05-19T08:09:44.878Z,51.215984
2023-05-19T08:10:44.911Z,51.216068
2023-05-19T08:11:44.888Z,51.216045
2023-05-19T08:12:44.857Z,51.216057
2023-05-19T08:13:44.858Z,51.215950
2023-05-19T08:14:44.864Z,51.215992
2023-05-19T08:15:44.944Z,51.215820
2023-05-19T08:16:44.850Z,51.215858
2023-05-19T08:17:44.868Z,51.215870
2023-05-19T08:18:44.891Z,51.215904
2023-05-19T08:19:44.820Z,51.215912
2023-05-19T08:20:44.816Z,51.215961
2023-05-19T08:21:44.843Z,51.216034
2023-05-19T08:22:44.806Z,51.216000
2023-05-19T08:23:44.804Z,51.216026
2023-05-19T08:24:44.837Z,51.216053
2023-05-19T08:25:44.794Z,51.215908
2023-05-19T08:26:44.854Z,51.215954
2023-05-19T08:27:44.773Z,51.216003
2023-05-19T08:28:44.768Z,51.215950
2023-05-19T08:29:44.753Z,51.216007
2023-05-19T08:30:44.768Z,51.216053
2023-05-19T08:31:44.776Z,51.216099
2023-05-19T08:32:44.752Z,51.216122
2023-05-19T08:33:44.727Z,51.216061
2023-05-19T08:34:44.751Z,51.216137
2023-05-19T08:35:44.757Z,51.216110
2023-05-19T08:36:44.715Z,51.216080
2023-05-19T08:37:44.744Z,51.216202
2023-05-19T08:38:44.698Z,51.216106
2023-05-19T08:39:44.689Z,51.216179
2023-05-19T08:40:44.697Z,51.216293
2023-05-19T08:41:44.679Z,51.216080
2023-05-19T08:42:44.700Z,51.216179
2023-05-19T08:43:44.676Z,51.215969
2023-05-19T08:44:44.657Z,51.215965
2023-05-19T08:45:44.657Z,51.216133
2023-05-19T08:46:44.743Z,51.216145
2023-05-19T08:47:44.684Z,51.216164
2023-05-19T08:48:44.640Z,51.216095
2023-05-19T08:49:44.654Z,51.216202
2023-05-19T08:50:44.628Z,51.216019
2023-05-19T08:51:44.616Z,51.216137
2023-05-19T08:52:46.829Z,51.216187
2023-05-19T08:53:44.607Z,51.216114
2023-05-19T08:54:44.629Z,51.216125
2023-05-19T08:55:44.595Z,51.216183
2023-05-19T08:56:44.623Z,51.216076
2023-05-19T08:57:44.568Z,51.216042
2023-05-19T08:58:44.569Z,51.216038
2023-05-19T08:59:44.586Z,51.216053
2023-05-19T09:00:44.576Z,51.216072
2023-05-19T09:01:44.572Z,51.216057
2023-05-19T09:02:55.034Z,51.216137
2023-05-19T09:03:46.643Z,51.216148
2023-05-19T09:04:44.640Z,51.215988
2023-05-19T09:05:44.602Z,51.216053
2023-05-19T09:06:44.539Z,51.215836
2023-05-19T09:07:44.524Z,51.215984
2023-05-19T09:08:44.516Z,51.216106
2023-05-19T09:09:44.958Z,51.216061
2023-05-19T09:10:44.512Z,51.216122
2023-05-19T09:11:44.498Z,51.216053
2023-05-19T09:12:44.484Z,51.216038
2023-05-19T09:13:44.483Z,51.215935
2023-05-19T09:14:44.475Z,51.215969
2023-05-19T09:15:44.480Z,51.216007
2023-05-19T09:16:44.504Z,51.216156
2023-05-19T09:17:44.552Z,51.216148
2023-05-19T09:18:44.507Z,51.216087
2023-05-19T09:19:44.448Z,51.216190
2023-05-19T09:20:44.462Z,51.216228
2023-05-19T09:21:44.690Z,51.216179
2023-05-19T09:22:45.434Z,51.216129
2023-05-19T09:23:44.420Z,51.216122
2023-05-19T09:24:44.414Z,51.216122
2023-05-19T09:25:44.416Z,51.215996
2023-05-19T09:26:44.400Z,51.215984
2023-05-19T09:27:45.404Z,51.216099
2023-05-19T09:28:44.394Z,51.216053
2023-05-19T09:29:44.404Z,51.216175
2023-05-19T09:30:44.377Z,51.216118
2023-05-19T09:31:44.428Z,51.215996
2023-05-19T09:32:44.731Z,51.216053
2023-05-19T09:33:46.012Z,51.215984
2023-05-19T09:34:45.346Z,51.215992
2023-05-19T09:35:44.366Z,51.216053
2023-05-19T09:36:44.358Z,51.216026
2023-05-19T09:37:44.327Z,51.215569
2023-05-19T09:38:44.342Z,51.215755
2023-05-19T09:39:44.349Z,51.216427
2023-05-19T09:40:44.318Z,51.215698
2023-05-19T09:41:44.338Z,51.215961
2023-05-19T09:42:44.325Z,51.215889
2023-05-19T09:43:44.313Z,51.216106
2023-05-19T09:44:44.299Z,51.215954
2023-05-19T09:45:44.334Z,51.216133
2023-05-19T09:46:44.515Z,51.215988
2023-05-19T09:47:44.330Z,51.216011
2023-05-19T09:48:44.270Z,51.215908
2023-05-19T09:49:44.263Z,51.216053
2023-05-19T09:50:44.260Z,51.215946
2023-05-19T09:51:44.253Z,51.216003
2023-05-19T09:52:44.255Z,51.216114
2023-05-19T09:53:44.221Z,51.215984
2023-05-19T09:54:44.263Z,51.216118
2023-05-19T09:55:44.240Z,51.216415
2023-05-19T09:56:44.214Z,51.216244
2023-05-19T09:57:44.314Z,51.216171
2023-05-19T09:58:44.206Z,51.215843
2023-05-19T09:59:44.214Z,51.215992
2023-05-19T10:00:44.215Z,51.215744
2023-05-19T10:01:44.292Z,51.215973
2023-05-19T10:02:44.343Z,51.216248
2023-05-19T10:03:44.185Z,51.216423
2023-05-19T10:04:44.252Z,51.216465
2023-05-19T10:05:44.164Z,51.216290
2023-05-19T10:06:44.165Z,51.215923
2023-05-19T10:07:44.144Z,51.215752
2023-05-19T10:08:44.176Z,51.215786
2023-05-19T10:09:44.150Z,51.216034
2023-05-19T10:10:44.146Z,51.216202
2023-05-19T10:11:44.151Z,51.216084
2023-05-19T10:12:44.121Z,51.215996
2023-05-19T10:13:44.116Z,51.216084
2023-05-19T10:14:44.105Z,51.215950
2023-05-19T10:15:57.337Z,51.215874
2023-05-19T10:16:46.112Z,51.216129
2023-05-19T10:17:44.132Z,51.216202
2023-05-19T10:18:44.105Z,51.216194
2023-05-19T10:19:44.069Z,51.216347
2023-05-19T10:20:44.069Z,51.216148
2023-05-19T10:21:44.066Z,51.216110
2023-05-19T10:22:44.074Z,51.216022
2023-05-19T10:23:44.081Z,51.215889
2023-05-19T10:24:44.044Z,51.215851
2023-05-19T10:25:44.038Z,51.215885
2023-05-19T10:26:44.033Z,51.216000
2023-05-19T10:27:44.084Z,51.216015
2023-05-19T10:28:44.053Z,51.215893
2023-05-19T10:29:44.016Z,51.215740
2023-05-19T10:30:44.002Z,51.215710
2023-05-19T10:31:45.013Z,51.215664
2023-05-19T10:32:44.066Z,51.216095
2023-05-19T10:33:44.017Z,51.216194
2023-05-19T10:34:43.999Z,51.216160
2023-05-19T10:35:45.202Z,51.216259
2023-05-19T10:36:43.958Z,51.216274
2023-05-19T10:37:44.000Z,51.216297
2023-05-19T10:38:43.975Z,51.216259
2023-05-19T10:39:43.964Z,51.216190
2023-05-19T10:40:43.936Z,51.216213
2023-05-19T10:41:45.015Z,51.216290
2023-05-19T10:42:43.924Z,51.216293
2023-05-19T10:43:43.926Z,51.216164
2023-05-19T10:44:43.930Z,51.216278
2023-05-19T10:45:43.920Z,51.216225
2023-05-19T10:46:43.955Z,51.216309
2023-05-19T10:47:43.918Z,51.216198
2023-05-19T10:48:43.894Z,51.216240
2023-05-19T10:49:43.893Z,51.216232
2023-05-19T10:50:43.892Z,51.216270
2023-05-19T10:51:43.875Z,51.216297
2023-05-19T10:52:43.865Z,51.216206
2023-05-19T10:53:43.855Z,51.216122
2023-05-19T10:54:43.871Z,51.215897
2023-05-19T10:55:43.859Z,51.215942
2023-05-19T10:56:43.844Z,51.215874
2023-05-19T10:57:43.841Z,51.215908
2023-05-19T10:58:43.842Z,51.215958
2023-05-19T10:59:43.841Z,51.216175
2023-05-19T11:00:43.832Z,51.216347
2023-05-19T11:01:43.842Z,51.216236
2023-05-19T11:02:43.909Z,51.216160
2023-05-19T11:03:43.836Z,51.216171
2023-05-19T11:04:43.830Z,51.215942
2023-05-19T11:05:43.805Z,51.215824
2023-05-19T11:06:43.811Z,51.215740
2023-05-19T11:07:43.772Z,51.215652
2023-05-19T11:08:43.766Z,51.216034
2023-05-19T11:09:43.774Z,51.216045
2023-05-19T11:10:43.773Z,51.215939
2023-05-19T11:11:43.809Z,51.216080
2023-05-19T11:12:43.762Z,51.216049
2023-05-19T11:13:43.822Z,51.216061
2023-05-19T11:14:43.750Z,51.215996
2023-05-19T11:15:43.732Z,51.216022
2023-05-19T11:16:43.764Z,51.216057
2023-05-19T11:17:43.726Z,51.216114
2023-05-19T11:18:43.791Z,51.216106
2023-05-19T11:19:43.720Z,51.216091
2023-05-19T11:20:43.734Z,51.216164
2023-05-19T11:21:43.722Z,51.216145
2023-05-19T11:22:43.689Z,51.216087
2023-05-19T11:23:43.717Z,51.216190
2023-05-19T11:24:43.753Z,51.216084